Time;durP1;ratioP1;P1;durP2;ratioP2;P2;SDS_P1;SDS_P2;PMS_P1;PMS_P2;Temp;Humidity;BMP_temperature;BMP_pressure;BME280_temperature;BME280_humidity;BME280_pressure;Samples;Min_cycle;Max_cycle;Signal;HPM_P1;HPM_P2
2022/07/23 00:02:14;;;;;;;13.40;10.33;;;24.50;66.80;;;;;;5022861;28;20481;-77
2022/07/23 00:04:43;;;;;;;16.13;10.20;;;24.50;66.70;;;;;;5021624;28;20450;-77
2022/07/23 00:07:11;;;;;;;12.73;9.40;;;24.50;66.70;;;;;;5024161;28;20486;-77
2022/07/23 00:09:39;;;;;;;15.40;9.53;;;24.50;66.60;;;;;;5014210;28;20476;-77
2022/07/23 00:12:07;;;;;;;15.67;10.10;;;24.40;66.60;;;;;;5009224;28;21318;-77
2022/07/23 00:14:35;;;;;;;13.43;9.70;;;24.30;66.70;;;;;;5007303;28;20561;-77
2022/07/23 00:17:03;;;;;;;12.17;9.30;;;24.30;66.70;;;;;;5022092;28;20490;-77
2022/07/23 00:19:31;;;;;;;13.53;10.00;;;24.20;66.70;;;;;;5020148;28;20519;-77
2022/07/23 00:22:01;;;;;;;12.70;9.53;;;24.20;66.90;;;;;;5006240;28;20543;-77
2022/07/23 00:24:29;;;;;;;14.33;9.03;;;24.20;66.90;;;;;;5002547;28;20472;-77
2022/07/23 00:26:57;;;;;;;12.93;9.50;;;24.30;66.90;;;;;;5026541;28;20490;-77
2022/07/23 00:29:25;;;;;;;13.60;9.70;;;24.30;66.90;;;;;;5022284;28;20459;-77
2022/07/23 00:31:53;;;;;;;14.23;10.17;;;24.30;66.80;;;;;;4998191;28;20478;-77
2022/07/23 00:34:21;;;;;;;13.27;9.67;;;24.30;66.80;;;;;;5021234;28;20457;-77
2022/07/23 00:36:49;;;;;;;15.07;10.53;;;24.30;66.80;;;;;;4999110;28;20902;-77
2022/07/23 00:39:18;;;;;;;13.10;9.53;;;24.30;66.70;;;;;;5022467;28;20456;-77
2022/07/23 00:41:46;;;;;;;13.17;10.33;;;24.20;66.60;;;;;;5025482;28;20461;-77
2022/07/23 00:44:19;;;;;;;17.37;10.20;;;24.20;66.60;;;;;;5020934;28;21152;-77
2022/07/23 00:46:49;;;;;;;17.77;10.33;;;24.10;66.50;;;;;;5020094;28;21009;-77
2022/07/23 00:49:17;;;;;;;16.50;10.03;;;24.00;66.60;;;;;;5028653;28;20460;-77
2022/07/23 00:51:45;;;;;;;21.00;10.47;;;24.00;66.80;;;;;;5008960;28;20485;-77
2022/07/23 00:54:13;;;;;;;14.87;9.70;;;24.00;66.90;;;;;;5024511;28;20449;-77
2022/07/23 00:56:44;;;;;;;14.93;9.97;;;24.00;67.00;;;;;;5026158;28;20558;-76
2022/07/23 00:59:13;;;;;;;13.77;10.07;;;24.00;67.00;;;;;;5026530;28;21512;-77
2022/07/23 01:01:43;;;;;;;16.37;9.83;;;24.00;67.00;;;;;;5022191;28;20491;-77
2022/07/23 01:04:11;;;;;;;15.20;10.33;;;23.90;67.10;;;;;;5025262;28;20552;-76
2022/07/23 01:06:40;;;;;;;16.10;9.60;;;23.90;67.00;;;;;;5028448;28;21093;-76
2022/07/23 01:09:08;;;;;;;12.93;10.00;;;23.90;67.30;;;;;;5025176;28;20867;-77
2022/07/23 01:11:37;;;;;;;19.03;10.17;;;23.90;67.30;;;;;;5022295;28;20967;-77
2022/07/23 01:14:12;;;;;;;19.97;9.80;;;23.90;67.30;;;;;;5024510;28;20464;-77
2022/07/23 01:16:41;;;;;;;12.13;10.20;;;23.80;67.50;;;;;;5024654;28;20477;-77
2022/07/23 01:19:10;;;;;;;14.17;10.23;;;23.80;67.60;;;;;;5019639;28;20469;-77
2022/07/23 01:21:39;;;;;;;17.23;10.07;;;23.70;67.70;;;;;;5026047;28;20836;-76
2022/07/23 01:24:10;;;;;;;14.23;11.27;;;23.70;68.00;;;;;;5011649;28;20487;-77
2022/07/23 01:26:44;;;;;;;17.03;10.77;;;23.70;68.00;;;;;;5026579;28;20528;-76
2022/07/23 01:29:13;;;;;;;19.97;10.90;;;23.70;68.10;;;;;;5022937;28;20515;-76
2022/07/23 01:31:42;;;;;;;15.43;10.40;;;23.70;68.20;;;;;;5013559;28;20862;-76
2022/07/23 01:34:12;;;;;;;13.20;9.53;;;23.70;68.40;;;;;;5017372;28;20965;-76
2022/07/23 01:36:41;;;;;;;16.70;10.60;;;23.70;68.30;;;;;;5016090;28;20479;-76
2022/07/23 01:39:12;;;;;;;13.53;9.47;;;23.60;68.40;;;;;;5012100;28;20494;-76
2022/07/23 01:41:40;;;;;;;14.03;10.20;;;23.60;68.60;;;;;;5013707;28;20457;-77
2022/07/23 01:44:10;;;;;;;20.10;10.40;;;23.60;68.70;;;;;;5024990;28;20460;-77
2022/07/23 01:46:40;;;;;;;21.70;10.97;;;23.60;68.80;;;;;;5006429;28;20490;-77
2022/07/23 01:49:08;;;;;;;15.10;10.63;;;23.70;68.90;;;;;;5012152;28;20471;-77
2022/07/23 01:52:06;;;;;;;13.80;10.00;;;23.70;68.90;;;;;;4993772;28;20479;-77
2022/07/23 01:54:44;;;;;;;16.70;10.63;;;23.70;68.90;;;;;;5008944;28;20454;-76
2022/07/23 01:57:12;;;;;;;17.00;12.60;;;23.80;69.00;;;;;;5025945;28;20479;-77
2022/07/23 01:59:40;;;;;;;14.03;10.63;;;23.80;69.00;;;;;;5023257;28;20472;-77
2022/07/23 02:02:10;;;;;;;16.03;10.57;;;23.80;69.10;;;;;;5025275;28;21214;-77
2022/07/23 02:04:38;;;;;;;15.60;11.00;;;23.80;69.20;;;;;;5021264;28;20458;-76
2022/07/23 02:07:07;;;;;;;15.87;10.50;;;23.80;69.20;;;;;;5025736;28;20473;-77
2022/07/23 02:09:35;;;;;;;15.40;10.20;;;23.80;69.30;;;;;;5021562;28;20456;-77
2022/07/23 02:12:05;;;;;;;15.73;11.30;;;23.70;69.40;;;;;;5027424;28;20572;-77
2022/07/23 02:14:33;;;;;;;19.40;11.73;;;23.70;69.50;;;;;;5027206;28;21036;-77
2022/07/23 02:17:02;;;;;;;14.93;10.87;;;23.70;69.60;;;;;;5028809;28;20488;-77
2022/07/23 02:19:31;;;;;;;15.13;11.10;;;23.70;69.70;;;;;;5011154;28;20606;-77
2022/07/23 02:21:59;;;;;;;26.07;12.83;;;23.70;69.80;;;;;;5022518;28;20464;-77
2022/07/23 02:24:26;;;;;;;13.00;10.47;;;23.70;69.80;;;;;;5031193;28;20468;-77
2022/07/23 02:26:55;;;;;;;12.40;10.23;;;23.70;69.70;;;;;;5025481;28;20479;-76
2022/07/23 02:29:25;;;;;;;15.63;11.90;;;23.70;69.70;;;;;;5029507;28;20888;-76
2022/07/23 02:31:54;;;;;;;16.97;10.80;;;23.60;69.70;;;;;;5009938;28;20482;-76
2022/07/23 02:34:23;;;;;;;13.23;10.70;;;23.60;69.80;;;;;;5024188;28;21290;-76
2022/07/23 02:36:52;;;;;;;14.30;10.13;;;23.60;69.90;;;;;;5028393;28;20570;-76
2022/07/23 02:39:21;;;;;;;14.80;12.10;;;23.60;69.90;;;;;;5026145;28;20520;-76
2022/07/23 02:41:50;;;;;;;13.93;10.00;;;23.60;69.80;;;;;;5013246;28;20543;-76
2022/07/23 02:44:18;;;;;;;14.60;10.00;;;23.50;69.80;;;;;;5015897;28;20481;-76
2022/07/23 02:46:51;;;;;;;13.70;11.10;;;23.50;69.90;;;;;;5008552;28;20478;-76
2022/07/23 02:49:19;;;;;;;17.03;11.20;;;23.40;70.00;;;;;;5016368;28;20463;-76
2022/07/23 02:51:49;;;;;;;16.40;11.97;;;23.40;70.10;;;;;;5022572;28;20498;-76
2022/07/23 02:54:18;;;;;;;17.40;11.80;;;23.40;70.20;;;;;;5029168;28;20512;-75
2022/07/23 02:56:45;;;;;;;13.73;10.57;;;23.40;70.30;;;;;;5014540;28;20480;-76
2022/07/23 02:59:13;;;;;;;18.10;12.27;;;23.40;70.40;;;;;;5025051;28;20466;-76
2022/07/23 03:01:41;;;;;;;15.20;11.73;;;23.40;70.50;;;;;;5023226;28;20481;-76
2022/07/23 03:04:11;;;;;;;14.03;11.30;;;23.40;70.50;;;;;;5020755;28;20553;-76
2022/07/23 03:06:39;;;;;;;15.23;10.73;;;23.40;70.60;;;;;;5009790;28;20475;-76
2022/07/23 03:09:07;;;;;;;16.83;11.33;;;23.40;70.60;;;;;;5029681;28;20456;-75
2022/07/23 03:11:35;;;;;;;12.90;10.40;;;23.40;70.70;;;;;;5027427;28;20490;-76
2022/07/23 03:14:03;;;;;;;13.60;11.37;;;23.40;70.80;;;;;;5018844;28;20464;-76
2022/07/23 03:16:31;;;;;;;13.53;11.07;;;23.40;70.80;;;;;;5015857;28;20499;-75
2022/07/23 03:19:00;;;;;;;12.20;10.90;;;23.40;70.90;;;;;;5030604;28;20933;-75
2022/07/23 03:21:38;;;;;;;13.90;11.63;;;23.40;70.90;;;;;;5030564;28;20745;-76
2022/07/23 03:24:07;;;;;;;14.90;10.20;;;23.30;71.00;;;;;;5015585;28;20573;-76
2022/07/23 03:26:35;;;;;;;14.37;11.77;;;23.30;71.10;;;;;;5029546;28;20481;-77
2022/07/23 03:29:04;;;;;;;14.10;10.63;;;23.30;71.10;;;;;;5022670;28;20456;-77
2022/07/23 03:31:32;;;;;;;13.80;10.30;;;23.30;71.20;;;;;;5026934;28;20477;-76
2022/07/23 03:34:00;;;;;;;14.73;10.70;;;23.20;71.30;;;;;;5026318;28;21109;-76
2022/07/23 03:36:29;;;;;;;13.67;11.10;;;23.20;71.40;;;;;;5017091;28;20481;-76
2022/07/23 03:38:59;;;;;;;16.27;11.50;;;23.20;71.40;;;;;;5033529;28;20482;-76
2022/07/23 03:41:29;;;;;;;15.20;11.43;;;23.20;71.60;;;;;;5021526;28;20468;-76
2022/07/23 03:43:57;;;;;;;17.50;12.00;;;23.20;71.70;;;;;;5004103;28;20971;-76
2022/07/23 03:46:26;;;;;;;18.50;12.47;;;23.20;71.80;;;;;;5010605;28;20473;-76
2022/07/23 03:48:55;;;;;;;13.90;11.43;;;23.20;71.80;;;;;;5011569;28;20890;-76
2022/07/23 03:51:26;;;;;;;18.60;12.23;;;23.20;71.90;;;;;;5020865;28;20468;-76
2022/07/23 03:53:55;;;;;;;13.53;10.93;;;23.20;71.90;;;;;;5009760;28;20466;-76
2022/07/23 03:56:25;;;;;;;15.67;10.77;;;23.20;71.90;;;;;;5020191;28;20479;-76
2022/07/23 03:58:53;;;;;;;15.23;11.93;;;23.20;72.00;;;;;;5006014;28;20450;-76
2022/07/23 04:01:21;;;;;;;13.50;11.40;;;23.20;72.10;;;;;;5020957;28;20485;-76
2022/07/23 04:03:49;;;;;;;13.87;11.70;;;23.20;72.20;;;;;;5023278;28;21048;-76
2022/07/23 04:06:17;;;;;;;14.20;11.60;;;23.30;72.30;;;;;;5010051;28;20497;-76
2022/07/23 04:08:46;;;;;;;16.37;12.20;;;23.20;72.30;;;;;;5018800;28;20464;-76
2022/07/23 04:11:14;;;;;;;14.57;11.60;;;23.20;72.50;;;;;;5026568;28;20557;-76
2022/07/23 04:13:44;;;;;;;15.10;12.13;;;23.20;72.70;;;;;;5027684;28;20488;-77
2022/07/23 04:16:13;;;;;;;15.27;11.60;;;23.20;72.80;;;;;;5026324;28;20836;-76
2022/07/23 04:18:41;;;;;;;18.00;12.43;;;23.20;72.90;;;;;;5012532;28;20923;-76
2022/07/23 04:21:17;;;;;;;14.20;10.63;;;23.20;72.90;;;;;;5028089;28;20565;-76
2022/07/23 04:23:46;;;;;;;13.60;10.93;;;23.20;73.00;;;;;;5028922;28;21044;-76
2022/07/23 04:26:15;;;;;;;17.07;11.43;;;23.20;73.10;;;;;;5027446;28;20491;-77
2022/07/23 04:28:48;;;;;;;14.70;11.43;;;23.30;73.10;;;;;;5019121;28;20547;-76
2022/07/23 04:31:17;;;;;;;15.00;11.03;;;23.20;73.00;;;;;;5021926;28;20469;-76
2022/07/23 04:33:45;;;;;;;15.47;11.80;;;23.20;73.00;;;;;;5022086;28;20489;-76
2022/07/23 04:36:13;;;;;;;15.53;12.10;;;23.20;73.00;;;;;;5019486;28;20454;-77
2022/07/23 04:38:41;;;;;;;14.17;10.47;;;23.20;73.10;;;;;;5015178;28;20468;-77
2022/07/23 04:41:09;;;;;;;15.03;12.40;;;23.20;73.20;;;;;;5025359;28;20461;-77
2022/07/23 04:43:39;;;;;;;15.70;12.90;;;23.20;73.20;;;;;;5011981;28;20965;-77
2022/07/23 04:46:08;;;;;;;14.40;11.53;;;23.20;73.30;;;;;;5027177;28;20468;-77
2022/07/23 04:48:43;;;;;;;14.13;10.80;;;23.20;73.40;;;;;;5009488;28;20459;-79
2022/07/23 04:51:11;;;;;;;13.17;11.10;;;23.20;73.60;;;;;;5005303;28;20999;-78
2022/07/23 04:53:40;;;;;;;17.13;12.10;;;23.30;73.80;;;;;;5023054;28;20545;-78
2022/07/23 04:56:08;;;;;;;14.70;11.17;;;23.40;74.00;;;;;;5022509;28;20461;-78
2022/07/23 04:58:36;;;;;;;15.20;12.53;;;23.50;74.00;;;;;;5012261;28;20491;-77
2022/07/23 05:01:04;;;;;;;15.60;11.10;;;23.70;74.00;;;;;;5021986;28;20481;-77
2022/07/23 05:03:36;;;;;;;14.73;12.23;;;23.80;73.90;;;;;;5008813;28;20546;-77
2022/07/23 05:06:05;;;;;;;15.33;13.50;;;23.90;73.70;;;;;;5006931;28;20461;-78
2022/07/23 05:08:33;;;;;;;16.87;12.73;;;23.90;73.70;;;;;;5008757;28;20465;-77
2022/07/23 05:11:01;;;;;;;16.27;13.10;;;23.90;73.50;;;;;;5008355;28;20932;-77
2022/07/23 05:13:30;;;;;;;15.40;13.40;;;23.90;73.50;;;;;;5010342;28;20833;-76
2022/07/23 05:15:58;;;;;;;14.87;12.30;;;23.90;73.40;;;;;;5021497;28;20465;-76
2022/07/23 05:18:27;;;;;;;14.13;11.97;;;23.80;73.30;;;;;;5014989;28;20944;-76
2022/07/23 05:20:56;;;;;;;15.90;12.47;;;23.80;73.30;;;;;;5019810;28;20472;-75
2022/07/23 05:23:24;;;;;;;16.70;12.10;;;23.70;73.30;;;;;;5007210;28;20492;-76
2022/07/23 05:25:53;;;;;;;16.50;12.87;;;23.70;73.60;;;;;;5018210;28;20468;-76
2022/07/23 05:28:21;;;;;;;15.67;12.83;;;23.60;73.50;;;;;;5026235;28;20525;-77
2022/07/23 05:30:51;;;;;;;20.40;13.93;;;23.60;73.60;;;;;;5016492;28;20551;-76
2022/07/23 05:33:20;;;;;;;16.53;13.57;;;23.50;73.70;;;;;;5016612;28;20472;-77
2022/07/23 05:35:48;;;;;;;16.70;12.30;;;23.50;73.80;;;;;;5011144;28;21052;-77
2022/07/23 05:38:24;;;;;;;13.53;11.03;;;23.40;73.80;;;;;;5012506;28;20597;-76
2022/07/23 05:40:53;;;;;;;18.20;10.73;;;23.40;73.90;;;;;;5011028;28;20473;-76
2022/07/23 05:43:21;;;;;;;16.80;11.30;;;23.30;73.90;;;;;;5012084;28;20487;-76
2022/07/23 05:45:49;;;;;;;18.73;11.27;;;23.20;73.90;;;;;;5028100;28;21112;-76
2022/07/23 05:48:17;;;;;;;12.73;10.17;;;23.20;74.00;;;;;;5014150;28;20589;-76
2022/07/23 05:50:58;;;;;;;12.80;9.87;;;23.10;74.10;;;;;;5029741;28;20996;-76
2022/07/23 05:53:33;;;;;;;13.63;10.00;;;23.10;74.20;;;;;;5026594;28;20504;-76
2022/07/23 05:56:06;;;;;;;14.10;9.60;;;23.10;74.20;;;;;;5001658;28;20880;-76
2022/07/23 05:58:34;;;;;;;15.80;10.70;;;23.10;74.20;;;;;;5030991;28;20557;-76
2022/07/23 06:01:02;;;;;;;16.27;11.20;;;23.10;74.20;;;;;;5010744;28;20469;-76
2022/07/23 06:03:37;;;;;;;14.13;9.57;;;23.10;74.30;;;;;;5009189;28;20479;-76
2022/07/23 06:06:05;;;;;;;13.93;9.60;;;23.10;74.40;;;;;;5014330;28;20457;-75
2022/07/23 06:08:34;;;;;;;12.27;9.70;;;23.10;74.20;;;;;;5004220;28;20566;-76
2022/07/23 06:11:03;;;;;;;14.30;8.17;;;23.20;74.20;;;;;;5025025;28;20468;-76
2022/07/23 06:13:31;;;;;;;12.73;8.67;;;23.10;74.20;;;;;;5027930;28;20998;-76
2022/07/23 06:16:00;;;;;;;23.20;8.77;;;23.20;74.20;;;;;;5010853;28;20490;-77
2022/07/23 06:18:28;;;;;;;12.67;8.90;;;23.20;74.20;;;;;;5002008;28;20484;-76
2022/07/23 06:20:56;;;;;;;10.57;7.67;;;23.20;74.10;;;;;;5006237;28;20991;-77
2022/07/23 06:23:27;;;;;;;16.40;9.50;;;23.20;74.10;;;;;;4996696;28;20552;-77
2022/07/23 06:25:57;;;;;;;18.00;8.87;;;23.20;74.00;;;;;;5000491;28;21098;-75
2022/07/23 06:28:25;;;;;;;15.60;9.30;;;23.20;74.00;;;;;;5004965;28;20445;-76
2022/07/23 06:30:53;;;;;;;11.50;8.60;;;23.20;74.00;;;;;;4997496;28;20487;-76
2022/07/23 06:33:24;;;;;;;14.73;9.30;;;23.10;74.10;;;;;;5002990;28;20570;-76
2022/07/23 06:35:52;;;;;;;14.73;9.17;;;23.10;74.30;;;;;;5005095;28;20489;-76
2022/07/23 06:38:21;;;;;;;11.33;8.67;;;23.20;74.30;;;;;;5008881;28;20507;-76
2022/07/23 06:40:49;;;;;;;12.73;8.23;;;23.20;74.40;;;;;;4993068;28;20461;-77
2022/07/23 06:43:18;;;;;;;12.40;9.27;;;23.20;74.40;;;;;;4994713;28;20584;-77
2022/07/23 06:45:46;;;;;;;11.60;8.90;;;23.10;74.60;;;;;;5001865;28;20593;-77
2022/07/23 06:48:14;;;;;;;11.60;9.03;;;23.20;74.60;;;;;;5006026;28;20478;-76
2022/07/23 06:50:42;;;;;;;15.23;8.87;;;23.20;74.70;;;;;;5005629;28;20573;-76
2022/07/23 06:53:10;;;;;;;11.50;8.33;;;23.10;74.80;;;;;;5004165;28;20451;-76
2022/07/23 06:55:41;;;;;;;13.37;8.17;;;23.10;74.80;;;;;;5011303;28;20549;-76
2022/07/23 06:58:10;;;;;;;10.63;8.00;;;23.10;74.90;;;;;;5011554;28;20513;-76
2022/07/23 07:00:40;;;;;;;12.00;9.03;;;23.10;75.00;;;;;;4995976;28;20509;-76
2022/07/23 07:03:08;;;;;;;14.50;9.93;;;23.10;75.10;;;;;;4999050;28;20468;-75
2022/07/23 07:05:36;;;;;;;15.03;8.83;;;23.10;75.20;;;;;;5002939;28;20474;-75
2022/07/23 07:08:04;;;;;;;14.60;8.60;;;23.20;75.10;;;;;;5003066;28;20998;-76
2022/07/23 07:10:32;;;;;;;12.00;8.50;;;23.20;75.10;;;;;;4979895;28;21185;-76
2022/07/23 07:13:00;;;;;;;13.10;8.60;;;23.20;75.20;;;;;;5002197;28;20466;-76
2022/07/23 07:15:28;;;;;;;11.63;8.80;;;23.20;75.20;;;;;;5004391;28;20477;-76
2022/07/23 07:17:58;;;;;;;14.23;8.13;;;23.20;75.20;;;;;;4999418;28;20832;-78
2022/07/23 07:20:26;;;;;;;13.50;8.97;;;23.20;75.30;;;;;;5001775;28;20469;-76
2022/07/23 07:22:53;;;;;;;12.50;9.00;;;23.20;75.40;;;;;;5002400;28;20832;-77
2022/07/23 07:25:22;;;;;;;10.90;8.63;;;23.20;75.50;;;;;;5002933;28;20455;-76
2022/07/23 07:27:50;;;;;;;12.10;8.90;;;23.20;75.60;;;;;;5003750;28;20478;-76
2022/07/23 07:30:18;;;;;;;12.30;8.40;;;23.20;75.70;;;;;;5002574;28;20468;-75
2022/07/23 07:32:46;;;;;;;16.80;8.90;;;23.30;75.70;;;;;;5002505;28;20469;-76
2022/07/23 07:35:25;;;;;;;12.77;9.00;;;23.30;75.80;;;;;;5002171;28;20587;-76
2022/07/23 07:37:53;;;;;;;16.10;9.77;;;23.30;75.70;;;;;;5004742;28;20490;-76
2022/07/23 07:40:21;;;;;;;12.80;9.60;;;23.30;75.80;;;;;;5002077;28;20487;-76
2022/07/23 07:42:51;;;;;;;14.50;9.30;;;23.40;76.00;;;;;;5002159;28;21064;-76
2022/07/23 07:45:21;;;;;;;11.87;9.10;;;23.40;76.10;;;;;;5002484;28;20448;-77
2022/07/23 07:47:49;;;;;;;13.07;8.83;;;23.50;76.00;;;;;;4999931;28;20508;-77
2022/07/23 07:50:17;;;;;;;12.67;9.03;;;23.50;76.00;;;;;;5000126;28;20469;-76
2022/07/23 07:52:47;;;;;;;19.90;10.03;;;23.60;76.00;;;;;;5000376;28;20570;-76
2022/07/23 07:55:16;;;;;;;12.60;9.30;;;23.60;76.00;;;;;;4983023;28;20458;-76
2022/07/23 07:57:44;;;;;;;13.20;9.67;;;23.70;76.00;;;;;;4998594;28;20491;-76
2022/07/23 08:00:17;;;;;;;13.40;9.33;;;23.70;75.90;;;;;;4994580;28;20999;-76
2022/07/23 08:02:48;;;;;;;13.60;8.50;;;23.80;75.80;;;;;;5002054;28;21019;-76
2022/07/23 08:05:20;;;;;;;10.97;8.30;;;23.80;75.70;;;;;;5001191;28;20532;-76
2022/07/23 08:07:55;;;;;;;17.47;9.67;;;23.80;75.70;;;;;;5002976;28;21022;-76
2022/07/23 08:10:23;;;;;;;11.97;8.83;;;23.80;75.70;;;;;;5000718;28;20810;-76
2022/07/23 08:12:54;;;;;;;11.83;8.77;;;23.80;75.60;;;;;;5000931;28;20458;-76
2022/07/23 08:15:23;;;;;;;14.53;8.97;;;23.80;75.60;;;;;;4998844;28;20492;-77
2022/07/23 08:17:51;;;;;;;14.30;9.63;;;23.90;75.50;;;;;;5002468;28;20481;-77
2022/07/23 08:20:22;;;;;;;11.50;8.50;;;23.90;75.40;;;;;;5002867;28;20520;-77
2022/07/23 08:22:52;;;;;;;12.17;9.40;;;23.90;75.40;;;;;;5001312;28;20485;-77
2022/07/23 08:25:24;;;;;;;14.03;9.03;;;23.90;75.30;;;;;;5000665;28;20447;-77
2022/07/23 08:27:52;;;;;;;14.23;9.70;;;24.00;75.20;;;;;;4999222;28;20486;-78
2022/07/23 08:30:20;;;;;;;11.07;8.70;;;23.90;75.00;;;;;;5002235;28;20458;-78
2022/07/23 08:32:53;;;;;;;13.70;9.93;;;23.90;75.00;;;;;;5001092;28;20549;-77
2022/07/23 08:35:28;;;;;;;11.87;8.90;;;23.90;75.00;;;;;;5003559;28;20494;-77
2022/07/23 08:37:57;;;;;;;11.90;7.77;;;24.00;75.00;;;;;;5004356;28;20490;-77
2022/07/23 08:40:28;;;;;;;13.97;8.97;;;24.00;74.90;;;;;;4991709;28;20469;-78
2022/07/23 08:42:56;;;;;;;12.93;9.50;;;24.00;74.90;;;;;;5003676;28;20465;-77
2022/07/23 08:45:26;;;;;;;13.33;8.43;;;24.00;74.90;;;;;;5002548;28;20460;-77
2022/07/23 08:47:55;;;;;;;11.13;9.00;;;24.10;74.80;;;;;;5001686;28;20839;-77
2022/07/23 08:50:25;;;;;;;19.43;9.13;;;24.10;74.70;;;;;;5000852;28;20493;-77
2022/07/23 08:52:54;;;;;;;12.43;8.40;;;24.10;74.70;;;;;;5003894;28;21226;-77
2022/07/23 08:55:23;;;;;;;13.10;8.90;;;24.10;74.70;;;;;;5003935;28;20489;-77
2022/07/23 08:57:53;;;;;;;13.53;10.00;;;24.20;74.70;;;;;;5002934;28;20482;-77
2022/07/23 09:00:22;;;;;;;13.70;9.43;;;24.20;74.60;;;;;;4999212;28;20471;-77
2022/07/23 09:02:51;;;;;;;18.20;10.70;;;24.30;74.50;;;;;;5003410;28;20466;-77
2022/07/23 09:05:20;;;;;;;9.77;7.93;;;24.30;74.40;;;;;;4999677;28;20553;-77
2022/07/23 09:08:09;;;;;;;12.10;9.43;;;24.30;74.30;;;;;;5000430;28;20477;-77
2022/07/23 09:10:53;;;;;;;11.23;9.60;;;24.30;74.40;;;;;;5005766;28;20461;-76
2022/07/23 09:13:31;;;;;;;13.47;9.53;;;24.30;74.30;;;;;;5006525;28;20457;-76
2022/07/23 09:16:01;;;;;;;10.70;8.80;;;24.40;74.20;;;;;;5004870;28;20966;-76
2022/07/23 09:18:31;;;;;;;12.80;10.27;;;24.40;74.00;;;;;;5004003;28;20462;-76
2022/07/23 09:21:16;;;;;;;13.20;10.10;;;24.40;74.00;;;;;;5003950;28;20495;-76
2022/07/23 09:23:46;;;;;;;13.87;9.83;;;24.40;73.90;;;;;;5002457;28;20469;-76
2022/07/23 09:26:34;;;;;;;16.30;8.93;;;24.30;73.80;;;;;;5006242;28;20542;-77
2022/07/23 09:29:10;;;;;;;13.70;10.10;;;24.40;73.90;;;;;;5007703;28;20470;-76
2022/07/23 09:31:48;;;;;;;14.63;10.80;;;24.40;74.00;;;;;;4994229;28;20520;-76
2022/07/23 09:34:19;;;;;;;14.77;9.27;;;24.50;73.90;;;;;;5010712;28;20481;-76
2022/07/23 09:36:47;;;;;;;28.03;14.40;;;24.50;73.80;;;;;;5006825;28;20495;-75
2022/07/23 09:39:26;;;;;;;22.67;12.40;;;24.60;73.80;;;;;;5008100;28;20471;-76
2022/07/23 09:41:54;;;;;;;21.33;11.90;;;24.60;73.90;;;;;;5009963;28;20546;-76
2022/07/23 09:44:23;;;;;;;16.27;10.10;;;24.70;73.90;;;;;;4990342;28;20471;-76
2022/07/23 09:47:01;;;;;;;24.50;11.83;;;24.70;73.80;;;;;;5004467;28;21237;-77
2022/07/23 09:49:29;;;;;;;16.57;11.10;;;24.80;73.70;;;;;;5000080;28;20975;-76
2022/07/23 09:51:59;;;;;;;16.07;10.23;;;24.80;73.60;;;;;;5006104;28;21381;-76
2022/07/23 09:54:31;;;;;;;13.67;10.23;;;24.90;73.40;;;;;;5017544;28;20463;-77
2022/07/23 09:57:00;;;;;;;14.80;9.40;;;25.00;72.90;;;;;;5003379;28;20483;-76
2022/07/23 09:59:33;;;;;;;15.87;10.40;;;25.00;72.80;;;;;;5012166;28;20446;-76
2022/07/23 10:02:02;;;;;;;19.40;12.30;;;25.00;72.70;;;;;;5011926;28;20567;-76
2022/07/23 10:04:35;;;;;;;16.73;10.87;;;25.10;72.60;;;;;;5013717;28;20758;-76
2022/07/23 10:07:18;;;;;;;16.03;10.30;;;25.10;72.60;;;;;;5003543;28;20535;-76
2022/07/23 10:10:22;;;;;;;16.10;10.30;;;25.20;72.50;;;;;;5012711;28;20460;-76
2022/07/23 10:16:08;;;;;;;14.00;8.73;;;25.30;72.00;;;;;;5009812;28;20496;-76
2022/07/23 10:18:37;;;;;;;13.33;9.40;;;25.30;71.30;;;;;;5005960;28;20464;-76
2022/07/23 10:21:16;;;;;;;12.73;9.83;;;25.20;71.20;;;;;;5007848;28;20464;-77
2022/07/23 10:23:52;;;;;;;12.33;10.20;;;25.20;71.30;;;;;;5007103;28;20466;-77
2022/07/23 10:26:29;;;;;;;11.17;9.03;;;25.20;71.10;;;;;;5005617;28;20571;-76
2022/07/23 10:29:13;;;;;;;16.10;9.83;;;25.30;71.00;;;;;;5004714;28;20518;-76
2022/07/23 10:31:55;;;;;;;11.40;8.63;;;25.30;71.00;;;;;;4991744;28;20481;-76
2022/07/23 10:34:41;;;;;;;13.07;9.30;;;25.40;70.80;;;;;;5004317;28;20476;-75
2022/07/23 10:37:16;;;;;;;11.40;8.10;;;25.40;70.70;;;;;;5004545;28;20502;-76
2022/07/23 10:39:48;;;;;;;11.93;8.40;;;25.50;70.50;;;;;;4988731;28;20472;-76
2022/07/23 10:42:18;;;;;;;10.50;8.27;;;25.60;70.00;;;;;;5001215;28;20473;-77
2022/07/23 10:44:48;;;;;;;12.43;9.33;;;25.70;70.00;;;;;;5003741;28;20463;-76
2022/07/23 10:47:40;;;;;;;13.33;10.00;;;25.70;69.80;;;;;;5000718;28;20494;-77
2022/07/23 10:50:25;;;;;;;10.40;8.37;;;25.80;69.70;;;;;;5005007;28;20508;-76
2022/07/23 10:53:18;;;;;;;11.93;8.90;;;25.80;69.50;;;;;;5001274;28;20486;-77
2022/07/23 10:55:51;;;;;;;13.20;9.30;;;25.90;69.20;;;;;;4994254;28;20489;-77
2022/07/23 10:58:45;;;;;;;11.20;8.17;;;25.90;69.00;;;;;;4989317;28;20523;-77
2022/07/23 11:01:33;;;;;;;14.93;8.40;;;26.00;68.90;;;;;;5002365;28;20492;-77
2022/07/23 11:04:04;;;;;;;11.50;9.10;;;26.00;68.80;;;;;;5000101;28;20476;-77
2022/07/23 11:07:12;;;;;;;10.83;9.00;;;26.00;68.70;;;;;;5001276;28;20574;-77
2022/07/23 11:09:41;;;;;;;11.30;9.47;;;26.10;68.50;;;;;;5004705;28;20471;-77
2022/07/23 11:12:35;;;;;;;12.50;9.03;;;26.10;68.60;;;;;;5006009;28;20474;-77
2022/07/23 11:15:07;;;;;;;14.87;9.47;;;26.20;68.50;;;;;;5005686;28;20469;-76
2022/07/23 11:17:37;;;;;;;14.67;9.73;;;26.20;68.50;;;;;;5008543;28;20494;-77
2022/07/23 11:20:32;;;;;;;18.20;12.10;;;26.30;68.50;;;;;;5003986;28;20839;-77
2022/07/23 11:23:02;;;;;;;14.57;9.90;;;26.40;68.30;;;;;;4990330;28;20482;-77
2022/07/23 11:25:34;;;;;;;17.53;12.77;;;26.40;68.10;;;;;;5000720;28;20854;-77
2022/07/23 11:28:20;;;;;;;17.70;12.50;;;26.40;68.10;;;;;;5002139;28;21389;-78
2022/07/23 11:30:49;;;;;;;15.00;11.03;;;26.50;68.00;;;;;;5006370;28;21006;-77
2022/07/23 11:33:19;;;;;;;13.67;9.90;;;26.60;68.00;;;;;;4999876;28;20476;-78
2022/07/23 11:35:51;;;;;;;11.90;9.70;;;26.70;67.70;;;;;;5004663;28;20455;-77
2022/07/23 11:38:20;;;;;;;11.20;9.83;;;26.70;67.50;;;;;;4989963;28;20483;-77
2022/07/23 11:40:50;;;;;;;12.23;9.30;;;26.80;67.30;;;;;;5003127;28;20446;-77
2022/07/23 11:43:19;;;;;;;12.03;9.30;;;26.80;67.20;;;;;;5008186;28;20451;-77
2022/07/23 11:45:50;;;;;;;12.30;9.68;;;26.90;66.90;;;;;;5002302;28;20450;-78
2022/07/23 11:48:19;;;;;;;11.30;8.83;;;27.00;66.20;;;;;;4995735;28;20228;-77
2022/07/23 11:50:50;;;;;;;14.93;10.00;;;27.10;66.00;;;;;;5004567;28;20471;-78
2022/07/23 11:53:29;;;;;;;13.30;10.00;;;27.10;65.70;;;;;;5003548;28;20464;-77
2022/07/23 11:56:04;;;;;;;12.30;8.97;;;27.10;65.60;;;;;;5000850;28;20559;-77
2022/07/23 11:58:32;;;;;;;16.65;10.45;;;27.10;65.30;;;;;;5002897;28;20454;-80
2022/07/23 12:01:00;;;;;;;20.50;11.90;;;27.10;64.60;;;;;;5003581;28;20248;-78
2022/07/23 12:03:29;;;;;;;53.73;26.87;;;27.10;64.90;;;;;;5004021;28;20466;-79
2022/07/23 12:05:59;;;;;;;19.87;11.57;;;27.10;65.00;;;;;;5000535;28;20490;-77
2022/07/23 12:08:27;;;;;;;14.00;9.97;;;27.20;64.80;;;;;;4999648;28;20467;-77
2022/07/23 12:10:55;;;;;;;12.97;9.20;;;27.20;64.80;;;;;;5006379;28;20456;-77
2022/07/23 12:13:23;;;;;;;11.60;8.70;;;27.20;64.70;;;;;;5004814;28;20469;-77
2022/07/23 12:15:53;;;;;;;11.57;8.90;;;27.30;64.60;;;;;;5003383;28;20463;-78
2022/07/23 12:18:23;;;;;;;10.70;8.80;;;27.40;64.10;;;;;;5001501;28;20485;-78
2022/07/23 12:20:53;;;;;;;24.67;13.70;;;27.40;64.00;;;;;;5002465;28;20951;-78
2022/07/23 12:23:24;;;;;;;12.53;9.47;;;27.30;63.80;;;;;;4991326;28;20467;-77
2022/07/23 12:25:54;;;;;;;11.07;8.47;;;27.30;63.70;;;;;;5000822;28;20550;-78
2022/07/23 12:28:27;;;;;;;11.13;8.27;;;27.20;63.40;;;;;;5000816;28;20485;-76
2022/07/23 12:30:57;;;;;;;12.10;8.97;;;27.20;63.60;;;;;;5002764;28;20487;-77
2022/07/23 12:33:27;;;;;;;10.73;8.33;;;27.20;63.60;;;;;;5002205;28;20467;-77
2022/07/23 12:35:57;;;;;;;11.70;8.60;;;27.20;63.50;;;;;;5003920;28;20485;-77
2022/07/23 12:38:28;;;;;;;10.60;8.40;;;27.20;63.20;;;;;;5004220;28;20484;-77
2022/07/23 12:40:57;;;;;;;10.03;8.20;;;27.20;62.90;;;;;;5001351;28;20477;-77
2022/07/23 12:43:28;;;;;;;11.97;8.87;;;27.30;62.80;;;;;;4999779;28;20458;-77
2022/07/23 12:46:51;;;;;;;9.93;8.17;;;27.40;62.60;;;;;;5014730;28;20493;-77
2022/07/23 12:50:06;;;;;;;13.40;8.60;;;27.50;62.60;;;;;;5006440;28;20476;-76
2022/07/23 12:52:34;;;;;;;11.63;8.70;;;27.60;62.20;;;;;;5007343;28;20904;-77
2022/07/23 12:55:04;;;;;;;12.07;8.50;;;27.60;62.00;;;;;;5009166;28;21030;-76